Thunder radar more information blitzortung!


Radar de pluja more information rain snow radar


Visita la nostra xarxa de llocs de meteo:

Template documentation
and downloads

And another site



No particular awareness of the weather is required.    There are no Weather-warnings

Pagina Historial Weather Underground text

Diari Resum Setembre 26, 2017 Unitats:  Mètric    Imperial   Tant
« Previous Dia
SegĂźent Dia »
Diari Setmana Mensual Anual Personalitzada
  Maxima: Minima: Media:
Temperatura: -17.8 °C -9.6 °C -6.3 °C
Punt de rosada: -17.8 °C -11.4 °C -10.6 °C
Humitat: Humidity % 44 % 62 %
Wind Speed: 0 km/h 0 km/h 8.5 km/h
RĂ fegues de vent: 0 km/h - -
Vent:- - SSW
Pression baro: 0 hPa 34462.7 hPa -
Precipitacions: 0 mm    
Historical Graphs
 
 
Dades de taula per Setembre 26, 2017
Temps Temperatura Punt de rosada Pression baro Vent Wind Speed RĂ fegues de vent Humitat Rainfall Rate (Hourly)
-17.8 °C -17.8 °C 0 hPa Calm     Humidity % 0 mm
00:04 -8.6 °C -10.8 °C 34601.5 hPa Calm     77 % 0 mm
00:20 -9.2 °C -11 °C 34567.7 hPa Calm     81 % 0 mm
00:30 -9.3 °C -11.1 °C 34567.7 hPa WSW 5.1 km/h 7.7 km/h 81 % 0 mm
00:40 -9.3 °C -11.2 °C 34567.7 hPa SW 5.1 km/h 5.1 km/h 81 % 0 mm
00:50 -9.4 °C -11.1 °C 34567.7 hPa Calm   7.7 km/h 82 % 0 mm
01:00 -9.4 °C -11.2 °C 34533.8 hPa SW 5.1 km/h 5.1 km/h 82 % 0 mm
01:10 -9.4 °C -11.1 °C 34533.8 hPa SW 2.6 km/h 7.7 km/h 83 % 0 mm
01:20 -9.4 °C -11.1 °C 34533.8 hPa Calm   2.6 km/h 83 % 0 mm
01:30 -9.4 °C -11.1 °C 34533.8 hPa SW 2.6 km/h 5.1 km/h 83 % 0 mm
01:40 -9.4 °C -11.1 °C 34567.7 hPa SW 5.1 km/h 5.1 km/h 83 % 0 mm
01:45 -9.4 °C -11.1 °C 34567.7 hPa WSW 2.6 km/h 5.1 km/h 83 % 0 mm
01:55 -9.4 °C -11.1 °C 34567.7 hPa Calm   5.1 km/h 83 % 0 mm
02:05 -9.5 °C -11.1 °C 34567.7 hPa Calm   2.6 km/h 83 % 0 mm
02:15 -9.6 °C -11.2 °C 34567.7 hPa Calm     83 % 0 mm
02:25 -9.5 °C -11.1 °C 34567.7 hPa Calm   2.6 km/h 83 % 0 mm
02:35 -9.5 °C -11.2 °C 34567.7 hPa NW 2.6 km/h 5.1 km/h 82 % 0 mm
02:45 -9.5 °C -11.2 °C 34567.7 hPa West 2.6 km/h 5.1 km/h 82 % 0 mm
02:55 -9.5 °C -11.2 °C 34567.7 hPa Calm   2.6 km/h 82 % 0 mm
03:05 -9.6 °C -11.4 °C 34567.7 hPa WSW 2.6 km/h 5.1 km/h 81 % 0 mm
03:15 -9.6 °C -11.2 °C 34601.5 hPa Calm   5.1 km/h 82 % 0 mm
03:25 -9.4 °C -11.2 °C 34601.5 hPa SW 2.6 km/h 5.1 km/h 81 % 0 mm
03:35 -9.2 °C -11 °C 34601.5 hPa Calm   5.1 km/h 81 % 0 mm
03:45 -9.1 °C -10.9 °C 34601.5 hPa Calm   5.1 km/h 81 % 0 mm
03:55 -8.7 °C -10.6 °C 34601.5 hPa South 2.6 km/h 5.1 km/h 80 % 0 mm
04:05 -8.8 °C -10.9 °C 34601.5 hPa Calm   5.1 km/h 79 % 0 mm
04:15 -8.3 °C -10.4 °C 34601.5 hPa SW 2.6 km/h 5.1 km/h 78 % 0 mm
04:25 -8.2 °C -10.4 °C 34601.5 hPa South 5.1 km/h 5.1 km/h 77 % 0 mm
04:35 -8.2 °C -10.6 °C 34601.5 hPa SW 2.6 km/h 5.1 km/h 76 % 0 mm
04:45 -7.7 °C -10.2 °C 34601.5 hPa WSW 5.1 km/h 5.1 km/h 75 % 0 mm
04:55 -7.6 °C -10.2 °C 34601.5 hPa ENE 2.6 km/h 7.7 km/h 74 % 0 mm
05:05 -7.5 °C -10.4 °C 34601.5 hPa ENE 5.1 km/h 5.1 km/h 72 % 0 mm
05:15 -7.2 °C -10.2 °C 34567.7 hPa ENE 7.7 km/h 10.3 km/h 71 % 0 mm
05:25 -7.1 °C -10.1 °C 34601.5 hPa NE 7.7 km/h 7.7 km/h 71 % 0 mm
05:35 -6.9 °C -10.1 °C 34601.5 hPa NE 2.6 km/h 10.3 km/h 70 % 0 mm
05:45 -6.6 °C -9.9 °C 34601.5 hPa NE 2.6 km/h 5.1 km/h 68 % 0 mm
05:55 -6.7 °C -10.2 °C 34601.5 hPa ENE 5.1 km/h 10.3 km/h 67 % 0 mm
06:05 -6.4 °C -10.1 °C 34601.5 hPa East 5.1 km/h 7.7 km/h 66 % 0 mm
11:10 -6.2 °C -10 °C 34601.5 hPa NE 8.5 km/h 8.5 km/h 65 % 0 mm
11:15 -6.3 °C -10.1 °C 34601.5 hPa ENE 6 km/h 6.8 km/h 65 % 0 mm
11:20 -6.2 °C -10.1 °C 34567.7 hPa ESE 9 km/h 9 km/h 64 % 0 mm
11:25 -6 °C -10.1 °C 34567.7 hPa East 9 km/h 9 km/h 63 % 0 mm
11:30 -5.9 °C -9.9 °C 34567.7 hPa ESE 9.3 km/h 9.3 km/h 63 % 0 mm
11:35 -5.9 °C -9.9 °C 34567.7 hPa SSE 9 km/h 9 km/h 63 % 0 mm
11:40 -5.7 °C -9.9 °C 34567.7 hPa ESE 11.9 km/h 11.9 km/h 62 % 0 mm
11:45 -5.4 °C -9.8 °C 34567.7 hPa NNE 6 km/h 6.3 km/h 61 % 0 mm
11:50 -5.7 °C -10.1 °C 34601.5 hPa NNE 9 km/h 9 km/h 61 % 0 mm
11:55 -5.8 °C -10.1 °C 34601.5 hPa ESE 11.9 km/h 11.9 km/h 61 % 0 mm
12:00 -5.7 °C -10.1 °C 34601.5 hPa ESE 6 km/h 6 km/h 61 % 0 mm
12:05 -5.5 °C -10.1 °C 34601.5 hPa ESE 6 km/h   60 % 0 mm
12:10 -5.3 °C -9.8 °C 34601.5 hPa NNE 9 km/h 9 km/h 60 % 0 mm
12:15 -5.4 °C -10.1 °C 34601.5 hPa ESE 11.9 km/h 11.9 km/h 59 % 0 mm
12:20 -5.3 °C -9.9 °C 34601.5 hPa ESE 11.9 km/h 11.9 km/h 59 % 0 mm
12:25 -5.1 °C -9.8 °C 34601.5 hPa ESE 9 km/h 9 km/h 59 % 0 mm
12:30 -5.1 °C -9.8 °C 34601.5 hPa NW 6 km/h 6 km/h 59 % 0 mm
12:35 -4.9 °C -9.7 °C 34601.5 hPa SSW 6 km/h 6 km/h 58 % 0 mm
12:40 -4.8 °C -9.7 °C 34601.5 hPa WSW 4.2 km/h 5.1 km/h 58 % 0 mm
12:45 -4.6 °C -9.3 °C 34601.5 hPa SW 15 km/h 15 km/h 59 % 0 mm
12:50 -4.5 °C -9.8 °C 34601.5 hPa WSW 6 km/h 6 km/h 55 % 0 mm
12:55 -4.2 °C -9.4 °C 34601.5 hPa WNW 15 km/h 15 km/h 56 % 0 mm
13:00 -4.2 °C -9.5 °C 34601.5 hPa West 15 km/h 15 km/h 55 % 0 mm
13:01 -4.2 °C -9.5 °C 34567.7 hPa SW 15.3 km/h 15.3 km/h 55 % 0 mm
13:06 -4.1 °C -9.6 °C 34567.7 hPa WNW 9 km/h 9 km/h 54 % 0 mm
13:11 -4.1 °C -9.8 °C 34567.7 hPa WNW 15 km/h 15 km/h 53 % 0 mm
13:16 -4.5 °C -10 °C 34567.7 hPa SW 9 km/h 9 km/h 54 % 0 mm
13:21 -4.6 °C -10.1 °C 34567.7 hPa SSW 9 km/h 9 km/h 54 % 0 mm
13:26 -4.5 °C -10 °C 34567.7 hPa SW 11.9 km/h 11.9 km/h 54 % 0 mm
13:31 -4.2 °C -9.8 °C 34567.7 hPa WSW 15 km/h 15 km/h 53 % 0 mm
13:36 -4 °C -9.7 °C 34567.7 hPa SSW 15 km/h 15 km/h 53 % 0 mm
13:46 -3.9 °C -10.1 °C 34533.8 hPa SW 11.9 km/h 11.9 km/h 50 % 0 mm
13:51 -4.2 °C -10.2 °C 34533.8 hPa SSW 9 km/h 9 km/h 51 % 0 mm
13:56 -3.9 °C -10.1 °C 34533.8 hPa WSW 10.3 km/h 10.3 km/h 50 % 0 mm
14:01 -4.2 °C -10.3 °C 34533.8 hPa SW 17.9 km/h 17.9 km/h 50 % 0 mm
14:06 -4.3 °C -10.4 °C 34533.8 hPa WSW 20.9 km/h 20.9 km/h 50 % 0 mm
14:11 -4.2 °C -10.5 °C 34533.8 hPa SSW 15 km/h 15 km/h 49 % 0 mm
14:16 -3.8 °C -10.2 °C 34533.8 hPa SSW 15.3 km/h 15.3 km/h 49 % 0 mm
14:21 -3.8 °C -10.4 °C 34533.8 hPa South 9 km/h 9 km/h 48 % 0 mm
14:26 -3.8 °C -10.4 °C 34533.8 hPa WSW 11.9 km/h 11.9 km/h 48 % 0 mm
14:31 -3.8 °C -10.3 °C 34533.8 hPa WSW 11.9 km/h 11.9 km/h 48 % 0 mm
14:36 -3.8 °C -10.6 °C 34533.8 hPa SSW 11.9 km/h 11.9 km/h 47 % 0 mm
14:41 -3.8 °C -10.5 °C 34533.8 hPa SW 11.9 km/h 11.9 km/h 47 % 0 mm
14:46 -3.9 °C -10.6 °C 34496.6 hPa South 15 km/h 15 km/h 47 % 0 mm
14:51 -3.7 °C -10.4 °C 34496.6 hPa SW 11.9 km/h 11.9 km/h 47 % 0 mm
14:56 -4 °C -10.5 °C 34496.6 hPa SW 26.9 km/h 26.9 km/h 48 % 0 mm
15:01 -4.3 °C -10.8 °C 34496.6 hPa WSW 23.8 km/h 23.8 km/h 48 % 0 mm
15:06 -4.1 °C -10.7 °C 34496.6 hPa South 17.9 km/h 17.9 km/h 48 % 0 mm
15:11 -4.3 °C -10.8 °C 34496.6 hPa SW 20.9 km/h 20.9 km/h 48 % 0 mm
15:16 -3.9 °C -10.5 °C 34496.6 hPa WSW 15.3 km/h 15.3 km/h 48 % 0 mm
15:21 -3.9 °C -10.6 °C 34496.6 hPa SW 16.1 km/h 16.1 km/h 47 % 0 mm
15:26 -3.9 °C -10.7 °C 34496.6 hPa SW 29.8 km/h 29.8 km/h 47 % 0 mm
15:31 -3.7 °C -10.6 °C 34496.6 hPa South 11.9 km/h 11.9 km/h 46 % 0 mm
15:36 -3.5 °C -10.4 °C 34496.6 hPa West 15 km/h 15 km/h 46 % 0 mm
15:41 -3.5 °C -10.4 °C 34496.6 hPa SW 20.9 km/h 20.9 km/h 46 % 0 mm
15:46 -3.7 °C -10.8 °C 34496.6 hPa SW 15 km/h 15 km/h 45 % 0 mm
15:51 -3.6 °C -10.7 °C 34496.6 hPa SW 20.9 km/h 20.9 km/h 45 % 0 mm
15:56 -3.6 °C -10.7 °C 34496.6 hPa SSW 20.9 km/h 20.9 km/h 45 % 0 mm
16:01 -3.4 °C -10.6 °C 34496.6 hPa WSW 20.3 km/h 20.3 km/h 45 % 0 mm
16:06 -3.6 °C -10.7 °C 34496.6 hPa SSW 15 km/h 20.3 km/h 45 % 0 mm
16:11 -3.8 °C -11.1 °C 34496.6 hPa SSW 32.8 km/h 32.8 km/h 44 % 0 mm
16:16 -3.7 °C -10.9 °C 34496.6 hPa WSW 11.9 km/h 11.9 km/h 44 % 0 mm
16:21 -3.7 °C -11 °C 34496.6 hPa WSW 23.8 km/h 23.8 km/h 44 % 0 mm
16:26 -3.9 °C -11 °C 34496.6 hPa WSW 20.9 km/h 20.9 km/h 45 % 0 mm
16:31 -4.1 °C -11.2 °C 34496.6 hPa SW 20.9 km/h 20.9 km/h 45 % 0 mm
16:36 -4.3 °C -11.3 °C 34496.6 hPa SSW 11.1 km/h 11.1 km/h 45 % 0 mm
16:41 -4.4 °C -11.2 °C 34496.6 hPa SW 23.8 km/h 23.8 km/h 46 % 0 mm
16:46 -4.4 °C -11.3 °C 34496.6 hPa SW 16.1 km/h 16.1 km/h 46 % 0 mm
16:51 -4.4 °C -11.3 °C 34496.6 hPa SSW 23.8 km/h 23.8 km/h 46 % 0 mm
16:56 -4.6 °C -11.3 °C 34496.6 hPa West 20.9 km/h 20.9 km/h 47 % 0 mm
17:01 -4.6 °C -11.3 °C 34496.6 hPa SSE 15 km/h 15 km/h 47 % 0 mm
17:06 -4.6 °C -11.2 °C 34496.6 hPa South 9 km/h 9 km/h 47 % 0 mm
17:11 -4.7 °C -11.3 °C 34496.6 hPa SSW 11.9 km/h 11.9 km/h 47 % 0 mm
17:16 -4.8 °C -11.3 °C 34496.6 hPa SW 23.8 km/h 23.8 km/h 48 % 0 mm
17:21 -4.8 °C -11.2 °C 34496.6 hPa SW 20.9 km/h 20.9 km/h 48 % 0 mm
17:27 -4.8 °C -11.2 °C 34496.6 hPa SSW 26.9 km/h 26.9 km/h 48 % 0 mm
17:32 -4.7 °C -11.2 °C 34462.7 hPa SW 15 km/h 15 km/h 48 % 0 mm
17:37 -4.7 °C -11.2 °C 34462.7 hPa WSW 22.5 km/h 22.5 km/h 48 % 0 mm
17:42 -4.9 °C -11.2 °C 34462.7 hPa SSW 15 km/h 15 km/h 49 % 0 mm
17:47 -4.9 °C -11.2 °C 34496.6 hPa WSW 17.9 km/h 17.9 km/h 49 % 0 mm
17:52 -5.1 °C -11.2 °C 34496.6 hPa SSW 23.8 km/h 23.8 km/h 50 % 0 mm
17:57 -5.2 °C -11.2 °C 34496.6 hPa SSW 11.9 km/h 11.9 km/h 51 % 0 mm
18:02 -5.3 °C -11.2 °C 34496.6 hPa SSW 17.9 km/h 17.9 km/h 51 % 0 mm
18:07 -5.3 °C -11.2 °C 34496.6 hPa SW 11.9 km/h 11.9 km/h 51 % 0 mm
18:12 -5.4 °C -11.2 °C 34496.6 hPa SW 16.1 km/h 16.1 km/h 52 % 0 mm
18:17 -5.6 °C -11.3 °C 34496.6 hPa WSW 26.9 km/h 26.9 km/h 52 % 0 mm
18:22 -5.7 °C -11.2 °C 34496.6 hPa SSW 24.3 km/h 24.3 km/h 53 % 0 mm
18:27 -5.8 °C -11.3 °C 34496.6 hPa SSW 17.9 km/h 17.9 km/h 53 % 0 mm
18:32 -5.9 °C -11.3 °C 34496.6 hPa West 15 km/h 15 km/h 54 % 0 mm
18:37 -5.9 °C -11.3 °C 34496.6 hPa West 15.6 km/h 15.6 km/h 54 % 0 mm
18:42 -5.9 °C -11.2 °C 34496.6 hPa WSW 9 km/h 9 km/h 55 % 0 mm
18:47 -6 °C -11.1 °C 34496.6 hPa SSW 20.9 km/h 20.9 km/h 56 % 0 mm
18:52 -6.1 °C -11.1 °C 34496.6 hPa SW 9.8 km/h 9.8 km/h 56 % 0 mm
18:57 -6.1 °C -11 °C 34496.6 hPa SSW 11.9 km/h 11.9 km/h 57 % 0 mm
19:02 -6.1 °C -11 °C 34533.8 hPa South 11.9 km/h 11.9 km/h 57 % 0 mm
19:07 -6.1 °C -11 °C 34533.8 hPa SSW 15 km/h 15 km/h 57 % 0 mm
19:12 -6.1 °C -11 °C 34533.8 hPa SSW 9 km/h 9 km/h 57 % 0 mm
19:17 -6 °C -10.9 °C 34533.8 hPa SW 11.9 km/h 11.9 km/h 57 % 0 mm
19:22 -6 °C -10.8 °C 34533.8 hPa WSW 6 km/h 6 km/h 58 % 0 mm
19:25 -7.1 °C -10.2 °C 34635.4 hPa SW 2.6 km/h 5.1 km/h 70 % 0 mm
19:27 -6 °C -10.8 °C 34533.8 hPa SW 9.3 km/h 9.3 km/h 58 % 0 mm
19:32 -6.1 °C -10.8 °C 34533.8 hPa West 15.3 km/h 15.3 km/h 58 % 0 mm
19:35 -7.2 °C -10.3 °C 34635.4 hPa SW 2.6 km/h 5.1 km/h 70 % 0 mm
19:37 -6.1 °C -10.9 °C 34533.8 hPa SSE 9 km/h 9 km/h 58 % 0 mm
19:42 -6.2 °C -10.9 °C 34533.8 hPa SSW 11.9 km/h 11.9 km/h 58 % 0 mm
19:45 -7.2 °C -10.2 °C 34635.4 hPa SW 2.6 km/h 2.6 km/h 71 % 0 mm
19:47 -6.3 °C -10.9 °C 34533.8 hPa SW 4.2 km/h 4.2 km/h 59 % 0 mm
19:52 -6.3 °C -10.9 °C 34533.8 hPa SSW 6 km/h 6 km/h 59 % 0 mm
19:55 -7.2 °C -10.2 °C 34635.4 hPa WSW 2.6 km/h 2.6 km/h 71 % 0 mm
19:57 -6.4 °C -11 °C 34533.8 hPa WSW 6 km/h 6 km/h 59 % 0 mm
20:02 -6.4 °C -10.9 °C 34533.8 hPa SSW 6 km/h 6 km/h 60 % 0 mm
20:05 -7.1 °C -10.1 °C 34635.4 hPa Calm   2.6 km/h 71 % 0 mm
20:07 -6.4 °C -10.9 °C 34533.8 hPa WSW 6.8 km/h 6.8 km/h 60 % 0 mm
20:12 -6.4 °C -10.9 °C 34533.8 hPa SW 3.1 km/h   60 % 0 mm
20:15 -7.2 °C -10.2 °C 34635.4 hPa Calm   5.1 km/h 71 % 0 mm
20:17 -6.4 °C -10.8 °C 34567.7 hPa WSW 6 km/h 6 km/h 61 % 0 mm
20:22 -6.4 °C -10.8 °C 34567.7 hPa SW 6 km/h 6 km/h 61 % 0 mm
20:25 -7.2 °C -10.2 °C 34635.4 hPa WSW 2.6 km/h 2.6 km/h 71 % 0 mm
20:27 -6.4 °C -10.8 °C 34567.7 hPa SW 3.1 km/h   61 % 0 mm
20:32 -6.4 °C -10.8 °C 34601.5 hPa SW 15 km/h 15 km/h 61 % 0 mm
20:35 -7.2 °C -10.2 °C 34635.4 hPa WSW 2.6 km/h 5.1 km/h 71 % 0 mm
20:37 -6.5 °C -10.8 °C 34601.5 hPa SSW 7.6 km/h 7.6 km/h 61 % 0 mm
20:42 -6.5 °C -10.7 °C 34601.5 hPa SW 7.6 km/h 7.6 km/h 62 % 0 mm
20:45 -7.3 °C -10.2 °C 34635.4 hPa West 2.6 km/h 7.7 km/h 72 % 0 mm
20:47 -6.6 °C -10.7 °C 34601.5 hPa SSW 11.9 km/h 11.9 km/h 62 % 0 mm
20:52 -6.6 °C -10.8 °C 34601.5 hPa SW 6 km/h 6 km/h 62 % 0 mm
20:55 -7.4 °C -10.2 °C 34635.4 hPa Calm   7.7 km/h 72 % 0 mm
20:57 -6.6 °C -10.7 °C 34601.5 hPa Calm     63 % 0 mm
21:02 -6.6 °C -10.7 °C 34601.5 hPa SW 3.1 km/h 3.1 km/h 63 % 0 mm
21:05 -7.4 °C -10.3 °C 34635.4 hPa Calm     72 % 0 mm
21:07 -6.7 °C -10.7 °C 34601.5 hPa SW 9 km/h 9 km/h 63 % 0 mm
21:12 -6.7 °C -10.7 °C 34601.5 hPa SW 6 km/h 6 km/h 63 % 0 mm
21:15 -7.6 °C -10.4 °C 34635.4 hPa Calm     72 % 0 mm
21:17 -6.7 °C -10.6 °C 34567.7 hPa SW 6 km/h 6 km/h 64 % 0 mm
21:22 -6.7 °C -10.6 °C 34567.7 hPa SSW 3.1 km/h   64 % 0 mm
21:25 -7.7 °C -10.4 °C 34635.4 hPa Calm   2.6 km/h 73 % 0 mm
21:27 -6.7 °C -10.6 °C 34567.7 hPa WSW 3.7 km/h 3.7 km/h 64 % 0 mm
21:32 -6.7 °C -10.5 °C 34601.5 hPa SW 6 km/h 6 km/h 65 % 0 mm
21:35 -7.8 °C -10.5 °C 34635.4 hPa Calm     73 % 0 mm
21:37 -6.7 °C -10.4 °C 34601.5 hPa SW 3.7 km/h 3.7 km/h 66 % 0 mm
21:42 -6.8 °C -10.4 °C 34601.5 hPa WNW 5.6 km/h 6.3 km/h 66 % 0 mm
21:45 -7.9 °C -10.5 °C 34635.4 hPa Calm     74 % 0 mm
21:47 -6.8 °C -10.6 °C 34601.5 hPa SW 7.6 km/h 7.6 km/h 65 % 0 mm
21:52 -6.8 °C -10.4 °C 34601.5 hPa WSW 6 km/h 6 km/h 66 % 0 mm
21:55 -8 °C -10.6 °C 34635.4 hPa Calm     74 % 0 mm
21:57 -6.9 °C -10.4 °C 34601.5 hPa SW 2.3 km/h   67 % 0 mm
22:02 -6.9 °C -10.4 °C 34601.5 hPa SW 3.7 km/h 3.7 km/h 67 % 0 mm
22:05 -8.1 °C -10.6 °C 34635.4 hPa Calm     75 % 0 mm
22:07 -6.9 °C -10.4 °C 34601.5 hPa SW 6 km/h 6 km/h 67 % 0 mm
22:12 -7 °C -10.5 °C 34601.5 hPa SW 9 km/h 9 km/h 67 % 0 mm
22:15 -8.2 °C -10.7 °C 34635.4 hPa WSW 2.6 km/h 5.1 km/h 75 % 0 mm
22:17 -7.1 °C -10.6 °C 34601.5 hPa SW 3.1 km/h 3.1 km/h 67 % 0 mm
22:22 -7.1 °C -10.4 °C 34601.5 hPa WSW 3.1 km/h   68 % 0 mm
22:25 -8.2 °C -10.6 °C 34601.5 hPa Calm     76 % 0 mm
22:27 -7.1 °C -10.4 °C 34601.5 hPa WSW 3.1 km/h   68 % 0 mm
22:32 -7.1 °C -10.4 °C 34635.4 hPa West 3.1 km/h   68 % 0 mm
22:35 -8.2 °C -10.6 °C 34601.5 hPa Calm     76 % 0 mm
22:37 -7.1 °C -10.3 °C 34635.4 hPa Calm     69 % 0 mm
22:42 -7.1 °C -10.3 °C 34635.4 hPa WSW 3.1 km/h 3.1 km/h 69 % 0 mm
22:45 -8.3 °C -10.7 °C 34601.5 hPa West 2.6 km/h 5.1 km/h 76 % 0 mm
22:47 -7.1 °C -10.3 °C 34635.4 hPa West 3.1 km/h   69 % 0 mm
22:52 -7.1 °C -10.3 °C 34635.4 hPa Calm     69 % 0 mm
22:55 -8.3 °C -10.7 °C 34601.5 hPa Calm   2.6 km/h 76 % 0 mm
22:57 -7.1 °C -10.3 °C 34635.4 hPa SW 3.1 km/h   69 % 0 mm
23:02 -7.1 °C -10.3 °C 34635.4 hPa West 3.1 km/h 3.1 km/h 69 % 0 mm
23:05 -8.4 °C -10.6 °C 34601.5 hPa SSW 2.6 km/h 2.6 km/h 78 % 0 mm
23:07 -7.1 °C -10.3 °C 34635.4 hPa WSW 6 km/h 6 km/h 69 % 0 mm
23:12 -7.1 °C -10.3 °C 34635.4 hPa SW 6 km/h 6 km/h 69 % 0 mm
23:15 -8.4 °C -10.6 °C 34601.5 hPa Calm   2.6 km/h 78 % 0 mm
23:17 -7.1 °C -10.3 °C 34635.4 hPa WSW 5.6 km/h 5.6 km/h 69 % 0 mm
23:22 -7.1 °C -10.2 °C 34635.4 hPa WSW 4.2 km/h 4.2 km/h 70 % 0 mm
23:25 -8.5 °C -10.7 °C 34601.5 hPa Calm     78 % 0 mm
23:27 -7.1 °C -10.2 °C 34635.4 hPa SW 3.1 km/h   70 % 0 mm
23:32 -7.1 °C -10.2 °C 34635.4 hPa WNW 3.1 km/h   70 % 0 mm
23:35 -8.4 °C -10.6 °C 34601.5 hPa Calm   2.6 km/h 78 % 0 mm
23:37 -7.1 °C -10.2 °C 34635.4 hPa SW 6 km/h 6 km/h 70 % 0 mm
23:42 -7.1 °C -10.2 °C 34635.4 hPa WSW 3.1 km/h 3.1 km/h 70 % 0 mm
23:45 -8.4 °C -10.5 °C 34601.5 hPa Calm     79 % 0 mm
23:47 -7.1 °C -10.2 °C 34635.4 hPa WSW 3.1 km/h 3.1 km/h 70 % 0 mm
23:52 -7.1 °C -10.2 °C 34635.4 hPa WSW 3.1 km/h   70 % 0 mm
23:55 -8.5 °C -10.5 °C 34601.5 hPa Calm   5.1 km/h 79 % 0 mm
23:57 -7.1 °C -10.2 °C 34635.4 hPa SW 6 km/h 6 km/h 70 % 0 mm
Meteo Sesrovires
Elogis d' Weather Underground - 3.75 mb

Guio original per  Jim McMurry - jmcmurry@mwt.net Adaptat per a la plantilla per  Wim van der Kuil - Leuven-Template.eu

Trobareu la nostra informacio del temps tambe a:

Weather Underground

AWEKAS